createdAt,value
2018-08-16T00:00:54.176Z,6.97
2018-08-16T00:03:24.088Z,7.13
2018-08-16T00:05:54.104Z,7.37
2018-08-16T00:08:24.302Z,6.83
2018-08-16T00:10:54.101Z,6.27
2018-08-16T00:13:24.231Z,7.60
2018-08-16T00:15:54.322Z,9.00
2018-08-16T00:18:24.365Z,7.60
2018-08-16T00:20:54.405Z,8.30
2018-08-16T00:23:24.430Z,6.90
2018-08-16T00:25:54.336Z,6.70
2018-08-16T00:28:24.364Z,7.73
2018-08-16T00:30:54.226Z,9.37
2018-08-16T00:33:24.139Z,7.80
2018-08-16T00:35:54.114Z,7.00
2018-08-16T00:38:24.182Z,7.70
2018-08-16T00:40:54.088Z,9.03
2018-08-16T00:43:23.951Z,6.87
2018-08-16T00:45:53.904Z,7.97
2018-08-16T00:48:23.788Z,7.47
2018-08-16T00:50:53.798Z,10.93
2018-08-16T00:53:23.657Z,6.80
2018-08-16T00:55:54.185Z,8.23
2018-08-16T00:58:24.180Z,8.13
2018-08-16T01:00:54.288Z,7.10
2018-08-16T01:03:24.276Z,6.90
2018-08-16T01:05:54.081Z,8.17
2018-08-16T01:08:23.891Z,7.57
2018-08-16T01:10:53.696Z,6.90
2018-08-16T01:13:23.610Z,7.80
2018-08-16T01:15:53.558Z,8.00
2018-08-16T01:18:23.436Z,7.40
2018-08-16T01:20:53.484Z,8.20
2018-08-16T01:23:23.319Z,10.13
2018-08-16T01:25:53.358Z,7.03
2018-08-16T01:28:23.328Z,7.43
2018-08-16T01:30:53.232Z,9.13
2018-08-16T01:33:23.297Z,8.93
2018-08-16T01:35:53.328Z,6.93
2018-08-16T01:38:23.300Z,9.03
2018-08-16T01:40:53.401Z,10.97
2018-08-16T01:43:23.355Z,7.70
2018-08-16T01:45:53.263Z,7.97
2018-08-16T01:48:23.080Z,10.37
2018-08-16T01:50:52.998Z,8.23
2018-08-16T01:53:22.882Z,7.80
2018-08-16T01:55:52.810Z,9.13
2018-08-16T01:58:22.600Z,7.90
2018-08-16T02:00:52.667Z,8.00
2018-08-16T02:03:22.735Z,7.70
2018-08-16T02:05:52.781Z,8.30
2018-08-16T02:08:22.825Z,7.47
2018-08-16T02:10:52.614Z,9.10
2018-08-16T02:13:23.466Z,6.87
2018-08-16T02:15:53.360Z,7.63
2018-08-16T02:18:23.363Z,7.37
2018-08-16T02:20:53.372Z,7.80
2018-08-16T02:23:23.202Z,8.53
2018-08-16T02:25:53.126Z,7.63
2018-08-16T02:28:22.964Z,8.07
2018-08-16T02:30:53.004Z,6.90
2018-08-16T02:33:22.880Z,7.60
2018-08-16T02:35:52.941Z,9.03
2018-08-16T02:38:22.932Z,8.30
2018-08-16T02:40:52.996Z,7.17
2018-08-16T02:43:22.908Z,8.20
2018-08-16T02:45:52.697Z,8.27
2018-08-16T02:48:22.626Z,7.70
2018-08-16T02:50:52.523Z,9.50
2018-08-16T02:53:22.681Z,9.50
2018-08-16T02:55:52.805Z,7.70
2018-08-16T02:58:22.729Z,8.07
2018-08-16T03:00:52.838Z,9.67
2018-08-16T03:03:22.691Z,8.20
2018-08-16T03:05:52.604Z,11.80
2018-08-16T03:08:22.822Z,7.97
2018-08-16T03:10:52.758Z,8.90
2018-08-16T03:13:22.524Z,8.23
2018-08-16T03:15:52.356Z,8.97
2018-08-16T03:18:22.396Z,9.87
2018-08-16T03:20:52.386Z,9.00
2018-08-16T03:23:22.180Z,8.83
2018-08-16T03:25:52.244Z,9.03
2018-08-16T03:28:22.023Z,9.93
2018-08-16T03:30:51.845Z,10.90
2018-08-16T03:33:21.900Z,8.30
2018-08-16T03:35:51.788Z,9.03
2018-08-16T03:38:21.756Z,7.73
2018-08-16T03:40:51.586Z,8.67
2018-08-16T03:43:21.583Z,8.00
2018-08-16T03:45:51.506Z,8.47
2018-08-16T03:48:21.373Z,8.67
2018-08-16T03:50:51.396Z,10.23
2018-08-16T03:53:21.304Z,9.30
2018-08-16T03:55:51.331Z,10.70
2018-08-16T03:58:21.236Z,11.03
2018-08-16T04:00:51.352Z,10.67
2018-08-16T04:03:21.587Z,10.33
2018-08-16T04:05:51.590Z,9.47
2018-08-16T04:08:21.384Z,9.27
2018-08-16T04:10:51.382Z,12.93
2018-08-16T04:13:21.238Z,11.00
2018-08-16T04:15:51.068Z,8.87
2018-08-16T04:18:20.961Z,11.17
2018-08-16T04:20:50.788Z,11.40
2018-08-16T04:23:20.684Z,11.63
2018-08-16T04:25:50.627Z,10.20
2018-08-16T04:28:20.719Z,12.47
2018-08-16T04:30:50.589Z,8.93
2018-08-16T04:33:20.482Z,7.87
2018-08-16T04:35:50.353Z,8.97
2018-08-16T04:38:20.177Z,8.40
2018-08-16T04:40:50.184Z,8.73
2018-08-16T04:43:19.971Z,9.17
2018-08-16T04:45:50.127Z,11.40
2018-08-16T04:48:19.992Z,11.87
2018-08-16T04:50:49.981Z,8.53
2018-08-16T04:53:19.884Z,8.83
2018-08-16T04:55:49.917Z,9.70
2018-08-16T04:58:19.777Z,8.80
2018-08-16T05:00:49.745Z,12.20
2018-08-16T05:03:19.771Z,10.80
2018-08-16T05:05:49.529Z,9.20
2018-08-16T05:08:19.480Z,8.60
2018-08-16T05:10:49.285Z,9.23
2018-08-16T05:13:19.076Z,9.13
2018-08-16T05:15:49.020Z,10.13
2018-08-16T05:18:18.941Z,10.97
2018-08-16T05:20:48.831Z,8.27
2018-08-16T05:23:18.795Z,9.47
2018-08-16T05:25:48.670Z,9.70
2018-08-16T05:28:18.460Z,9.63
2018-08-16T05:30:48.345Z,11.63
2018-08-16T05:33:18.232Z,8.93
2018-08-16T05:35:48.097Z,8.87
2018-08-16T05:38:17.996Z,9.33
2018-08-16T05:40:48.026Z,11.43
2018-08-16T05:43:18.371Z,8.60
2018-08-16T05:45:48.414Z,10.87
2018-08-16T05:48:18.348Z,9.00
2018-08-16T05:50:48.224Z,10.17
2018-08-16T05:53:18.097Z,9.13
2018-08-16T05:55:47.965Z,10.30
2018-08-16T05:58:17.891Z,9.07
2018-08-16T06:00:47.908Z,9.37
2018-08-16T06:03:17.818Z,9.63
2018-08-16T06:05:47.793Z,10.73
2018-08-16T06:08:17.543Z,12.23
2018-08-16T06:10:47.367Z,13.13
2018-08-16T06:13:17.281Z,11.27
2018-08-16T06:15:47.209Z,9.03
2018-08-16T06:18:17.146Z,11.63
2018-08-16T06:20:47.069Z,9.77
2018-08-16T06:23:17.024Z,9.83
2018-08-16T06:25:46.988Z,12.43
2018-08-16T06:28:16.941Z,11.73
2018-08-16T06:30:46.784Z,11.47
2018-08-16T06:33:16.717Z,11.73
2018-08-16T06:35:46.619Z,10.73
2018-08-16T06:38:16.738Z,8.97
2018-08-16T06:40:46.933Z,13.17
2018-08-16T06:43:17.211Z,12.33
2018-08-16T06:45:47.336Z,13.70
2018-08-16T06:48:17.518Z,11.10
2018-08-16T06:50:47.581Z,10.47
2018-08-16T06:53:17.906Z,12.03
2018-08-16T06:55:47.897Z,11.77
2018-08-16T06:58:17.833Z,14.40
2018-08-16T07:00:47.857Z,12.87
2018-08-16T07:03:17.733Z,13.17
2018-08-16T07:05:47.581Z,13.30
2018-08-16T07:08:17.736Z,11.50
2018-08-16T07:10:47.622Z,11.60
2018-08-16T07:13:17.701Z,16.27
2018-08-16T07:15:47.857Z,14.63
2018-08-16T07:18:17.760Z,15.50
2018-08-16T07:20:47.579Z,15.17
2018-08-16T07:23:18.023Z,13.07
2018-08-16T07:25:47.927Z,11.60
2018-08-16T07:28:17.999Z,14.93
2018-08-16T07:30:47.969Z,12.00
2018-08-16T07:33:17.852Z,15.17
2018-08-16T07:35:47.752Z,13.47
2018-08-16T07:38:18.227Z,12.27
2018-08-16T07:40:48.179Z,11.67
2018-08-16T07:43:18.181Z,14.20
2018-08-16T07:45:50.010Z,10.97
2018-08-16T07:48:20.220Z,15.37
2018-08-16T07:50:50.165Z,15.27
2018-08-16T07:53:20.155Z,15.60
2018-08-16T07:55:50.495Z,15.97
2018-08-16T07:58:22.301Z,17.10
2018-08-16T08:00:52.251Z,14.07
2018-08-16T08:03:22.620Z,16.37
2018-08-16T08:05:52.609Z,15.33
2018-08-16T08:08:22.512Z,13.63
2018-08-16T08:10:52.510Z,14.60
2018-08-16T08:13:22.486Z,14.77
2018-08-16T08:15:52.458Z,14.00
2018-08-16T08:18:22.623Z,14.13
2018-08-16T08:20:52.604Z,17.33
2018-08-16T08:23:22.553Z,14.20
2018-08-16T08:25:52.730Z,11.93
2018-08-16T08:28:22.717Z,15.30
2018-08-16T08:30:52.789Z,12.33
2018-08-16T08:33:22.691Z,14.23
2018-08-16T08:37:06.973Z,14.47
2018-08-16T08:39:36.776Z,12.97
2018-08-16T08:42:06.631Z,12.80
2018-08-16T08:44:36.737Z,13.00
2018-08-16T08:47:06.907Z,13.47
2018-08-16T08:49:36.847Z,12.13
2018-08-16T08:52:07.070Z,11.73
2018-08-16T08:54:55.859Z,11.90
2018-08-16T08:57:42.459Z,12.00
2018-08-16T09:00:12.436Z,10.60
2018-08-16T09:02:42.359Z,11.37
2018-08-16T09:05:12.231Z,12.37
2018-08-16T09:07:42.437Z,11.20
2018-08-16T09:11:27.089Z,11.07
2018-08-16T09:15:15.628Z,13.90
2018-08-16T09:17:45.646Z,13.27
2018-08-16T09:20:15.649Z,17.13
2018-08-16T09:22:45.868Z,12.07
2018-08-16T09:25:15.740Z,12.70
2018-08-16T09:27:45.527Z,11.77
2018-08-16T09:31:31.363Z,14.30
2018-08-16T09:34:17.749Z,15.17
2018-08-16T09:36:47.877Z,13.03
2018-08-16T09:39:17.951Z,13.70
2018-08-16T09:41:48.196Z,14.43
2018-08-16T09:44:18.068Z,14.70
2018-08-16T09:47:11.564Z,18.90
2018-08-16T09:49:51.528Z,14.90
2018-08-16T09:52:22.495Z,12.13
2018-08-16T09:54:52.400Z,14.43
2018-08-16T09:57:22.261Z,15.57
2018-08-16T09:59:52.434Z,16.30
2018-08-16T10:02:22.372Z,14.00
2018-08-16T10:04:52.311Z,13.70
2018-08-16T10:07:22.440Z,13.27
2018-08-16T10:09:52.461Z,15.43
2018-08-16T10:12:22.364Z,14.47
2018-08-16T10:14:52.429Z,18.17
2018-08-16T10:17:22.640Z,14.90
2018-08-16T10:19:52.976Z,14.27
2018-08-16T10:22:23.003Z,18.17
2018-08-16T10:24:53.340Z,13.90
2018-08-16T10:27:23.191Z,13.57
2018-08-16T10:29:53.217Z,11.27
2018-08-16T10:32:23.391Z,16.07
2018-08-16T10:34:53.478Z,14.57
2018-08-16T10:37:23.447Z,14.70
2018-08-16T10:39:53.324Z,18.70
2018-08-16T10:42:23.093Z,14.47
2018-08-16T10:44:53.115Z,13.97
2018-08-16T10:47:23.368Z,15.63
2018-08-16T10:49:55.117Z,14.20
2018-08-16T10:52:24.956Z,15.63
2018-08-16T10:54:55.351Z,15.07
2018-08-16T10:57:25.355Z,11.93
2018-08-16T10:59:55.330Z,14.33
2018-08-16T11:02:25.264Z,13.47
2018-08-16T11:04:55.345Z,13.00
2018-08-16T11:07:25.319Z,12.27
2018-08-16T11:09:55.311Z,14.87
2018-08-16T11:12:25.208Z,14.50
2018-08-16T11:14:55.080Z,19.23
2018-08-16T11:17:24.979Z,19.00
2018-08-16T11:19:55.251Z,15.93
2018-08-16T11:22:25.420Z,14.20
2018-08-16T11:24:55.641Z,15.30
2018-08-16T11:27:25.561Z,14.67
2018-08-16T11:29:55.664Z,15.53
2018-08-16T11:32:25.779Z,16.80
2018-08-16T11:34:55.642Z,19.40
2018-08-16T11:37:25.605Z,17.73
2018-08-16T11:39:55.619Z,16.93
2018-08-16T11:42:25.507Z,18.87
2018-08-16T11:44:55.508Z,14.63
2018-08-16T11:47:25.740Z,14.20
2018-08-16T11:49:56.041Z,16.53
2018-08-16T11:52:26.257Z,13.50
2018-08-16T11:54:56.409Z,15.30
2018-08-16T11:57:26.479Z,13.67
2018-08-16T11:59:56.332Z,13.07
2018-08-16T12:02:26.323Z,13.97
2018-08-16T12:04:56.267Z,13.77
2018-08-16T12:07:26.135Z,14.40
2018-08-16T12:09:55.966Z,15.60
2018-08-16T12:12:26.265Z,13.07
2018-08-16T12:14:56.248Z,14.27
2018-08-16T12:17:26.368Z,15.90
2018-08-16T12:19:56.463Z,13.70
2018-08-16T12:22:26.465Z,15.47
2018-08-16T12:24:56.390Z,13.77
2018-08-16T12:27:26.512Z,15.10
2018-08-16T12:29:56.662Z,13.33
2018-08-16T12:32:27.054Z,14.37
2018-08-16T12:34:57.184Z,13.97
2018-08-16T12:37:27.020Z,13.90
2018-08-16T12:39:56.819Z,13.93
2018-08-16T12:42:27.016Z,12.37
2018-08-16T12:44:57.090Z,12.37
2018-08-16T12:47:27.114Z,13.00
2018-08-16T12:49:56.926Z,12.40
2018-08-16T12:52:26.788Z,15.13
2018-08-16T12:54:57.100Z,13.00
2018-08-16T12:57:27.267Z,15.77
2018-08-16T12:59:57.370Z,23.80
2018-08-16T13:02:27.442Z,25.60
2018-08-16T13:04:57.706Z,19.30
2018-08-16T13:07:27.785Z,16.50
2018-08-16T13:09:57.818Z,14.30
2018-08-16T13:12:27.670Z,13.60
2018-08-16T13:14:57.561Z,12.70
2018-08-16T13:17:27.407Z,15.43
2018-08-16T13:19:57.197Z,14.50
2018-08-16T13:22:27.422Z,17.00
2018-08-16T13:24:57.427Z,13.20
2018-08-16T13:27:27.659Z,14.63
2018-08-16T13:29:57.877Z,12.97
2018-08-16T13:32:28.132Z,16.33
2018-08-16T13:34:57.899Z,14.23
2018-08-16T13:37:27.827Z,13.07
2018-08-16T13:39:57.853Z,13.03
2018-08-16T13:42:28.203Z,13.07
2018-08-16T13:44:58.284Z,12.87
2018-08-16T13:47:28.244Z,12.57
2018-08-16T13:49:58.100Z,11.80
2018-08-16T13:52:27.989Z,13.80
2018-08-16T13:54:57.849Z,12.33
2018-08-16T13:57:27.731Z,12.90
2018-08-16T13:59:57.661Z,11.53
2018-08-16T14:02:27.734Z,12.10
2018-08-16T14:04:57.597Z,11.23
2018-08-16T14:07:27.633Z,13.07
2018-08-16T14:09:57.731Z,14.33
2018-08-16T14:12:27.879Z,12.30
2018-08-16T14:14:58.229Z,16.17
2018-08-16T14:17:28.080Z,10.97
2018-08-16T14:19:58.188Z,11.10
2018-08-16T14:22:28.374Z,11.73
2018-08-16T14:24:58.424Z,13.43
2018-08-16T14:27:28.462Z,11.97
2018-08-16T14:29:58.304Z,13.57
2018-08-16T14:32:28.376Z,12.33
2018-08-16T14:34:58.405Z,11.53
2018-08-16T14:37:28.272Z,10.97
2018-08-16T14:39:58.357Z,12.17
2018-08-16T14:42:28.460Z,14.23
2018-08-16T14:44:58.416Z,12.10
2018-08-16T14:47:28.249Z,12.45
2018-08-16T14:49:58.342Z,12.37
2018-08-16T14:52:28.352Z,11.27
2018-08-16T14:54:58.457Z,12.07
2018-08-16T14:57:28.272Z,13.10
2018-08-16T14:59:58.193Z,12.40
2018-08-16T15:02:27.976Z,12.53
2018-08-16T15:04:58.402Z,14.40
2018-08-16T15:07:28.308Z,11.43
2018-08-16T15:09:58.193Z,13.53
2018-08-16T15:12:28.078Z,12.33
2018-08-16T15:14:58.179Z,16.30
2018-08-16T15:17:28.261Z,11.90
2018-08-16T15:19:58.104Z,12.60
2018-08-16T15:22:28.099Z,13.47
2018-08-16T15:24:57.973Z,11.43
2018-08-16T15:27:27.909Z,13.00
2018-08-16T15:29:57.736Z,12.10
2018-08-16T15:32:27.622Z,12.87
2018-08-16T15:34:57.596Z,12.10
2018-08-16T15:37:27.549Z,14.50
2018-08-16T15:39:57.451Z,20.20
2018-08-16T15:42:27.293Z,12.30
2018-08-16T15:44:57.205Z,13.70
2018-08-16T15:47:27.411Z,13.00
2018-08-16T15:49:57.291Z,12.10
2018-08-16T15:52:27.033Z,11.80
2018-08-16T15:54:56.973Z,11.37
2018-08-16T15:57:26.795Z,12.73
2018-08-16T15:59:56.925Z,12.87
2018-08-16T16:02:26.956Z,10.40
2018-08-16T16:04:57.041Z,14.10
2018-08-16T16:07:27.066Z,11.80
2018-08-16T16:09:57.061Z,10.93
2018-08-16T16:12:27.276Z,12.30
2018-08-16T16:14:57.598Z,10.73
2018-08-16T16:17:27.836Z,11.10
2018-08-16T16:19:57.739Z,13.17
2018-08-16T16:22:27.837Z,12.20
2018-08-16T16:24:57.893Z,11.60
2018-08-16T16:27:27.968Z,10.40
2018-08-16T16:29:57.916Z,15.93
2018-08-16T16:32:27.998Z,10.20
2018-08-16T16:34:57.941Z,12.47
2018-08-16T16:37:28.066Z,11.80
2018-08-16T16:39:58.110Z,13.33
2018-08-16T16:42:28.254Z,10.73
2018-08-16T16:44:58.190Z,11.90
2018-08-16T16:47:28.192Z,14.33
2018-08-16T16:49:58.294Z,10.50
2018-08-16T16:52:28.425Z,11.40
2018-08-16T16:54:58.288Z,11.23
2018-08-16T16:57:28.375Z,11.10
2018-08-16T16:59:58.561Z,11.20
2018-08-16T17:02:28.450Z,12.23
2018-08-16T17:04:58.556Z,11.10
2018-08-16T17:07:28.567Z,14.77
2018-08-16T17:09:58.600Z,11.57
2018-08-16T17:12:28.552Z,11.03
2018-08-16T17:14:58.592Z,10.90
2018-08-16T17:17:28.733Z,12.87
2018-08-16T17:19:58.604Z,12.03
2018-08-16T17:22:28.513Z,11.70
2018-08-16T17:24:58.541Z,11.30
2018-08-16T17:27:28.946Z,17.10
2018-08-16T17:29:58.827Z,10.57
2018-08-16T17:32:28.802Z,15.93
2018-08-16T17:34:58.767Z,18.57
2018-08-16T17:37:28.893Z,12.53
2018-08-16T17:39:58.796Z,11.33
2018-08-16T17:42:28.939Z,13.07
2018-08-16T17:45:00.644Z,12.97
2018-08-16T17:47:30.664Z,12.07
2018-08-16T17:50:00.639Z,16.27
2018-08-16T17:52:30.729Z,12.70
2018-08-16T17:55:00.736Z,13.50
2018-08-16T17:57:30.984Z,11.63
2018-08-16T18:00:01.007Z,15.97
2018-08-16T18:02:31.278Z,13.13
2018-08-16T18:05:01.175Z,16.80
2018-08-16T18:07:31.095Z,12.23
2018-08-16T18:10:01.091Z,14.83
2018-08-16T18:12:31.059Z,16.47
2018-08-16T18:15:00.920Z,13.30
2018-08-16T18:17:30.845Z,11.63
2018-08-16T18:20:00.741Z,13.90
2018-08-16T18:22:30.640Z,18.10
2018-08-16T18:25:00.632Z,15.70
2018-08-16T18:27:30.667Z,21.70
2018-08-16T18:30:00.588Z,19.60
2018-08-16T18:32:30.376Z,19.43
2018-08-16T18:35:00.192Z,23.93
2018-08-16T18:37:30.173Z,23.03
2018-08-16T18:40:00.022Z,19.43
2018-08-16T18:42:30.191Z,20.67
2018-08-16T18:45:00.127Z,15.33
2018-08-16T18:47:30.299Z,18.13
2018-08-16T18:50:00.215Z,16.77
2018-08-16T18:52:30.534Z,18.60
2018-08-16T18:55:00.345Z,15.20
2018-08-16T18:57:30.447Z,16.37
2018-08-16T19:00:00.332Z,15.17
2018-08-16T19:02:30.201Z,15.43
2018-08-16T19:05:00.261Z,13.40
2018-08-16T19:07:30.093Z,17.00
2018-08-16T19:10:00.274Z,13.33
2018-08-16T19:12:30.357Z,24.43
2018-08-16T19:15:00.393Z,17.27
2018-08-16T19:17:30.514Z,23.17
2018-08-16T19:20:00.416Z,17.00
2018-08-16T19:22:30.511Z,15.03
2018-08-16T19:25:00.355Z,14.30
2018-08-16T19:27:30.347Z,15.63
2018-08-16T19:30:00.343Z,14.93
2018-08-16T19:32:30.178Z,14.80
2018-08-16T19:35:00.208Z,14.00
2018-08-16T19:37:30.171Z,14.47
2018-08-16T19:40:00.104Z,15.27
2018-08-16T19:42:30.115Z,18.10
2018-08-16T19:45:00.147Z,16.30
2018-08-16T19:47:29.976Z,17.47
2018-08-16T19:50:00.025Z,13.60
2018-08-16T19:52:30.309Z,15.07
2018-08-16T19:55:00.232Z,14.63
2018-08-16T19:57:30.424Z,18.17
2018-08-16T20:00:01.541Z,19.70
2018-08-16T20:02:31.356Z,17.33
2018-08-16T20:05:01.833Z,17.03
2018-08-16T20:07:31.691Z,17.00
2018-08-16T20:10:01.712Z,16.57
2018-08-16T20:12:31.647Z,16.87
2018-08-16T20:15:01.643Z,17.80
2018-08-16T20:17:31.593Z,16.27
2018-08-16T20:20:01.521Z,16.60
2018-08-16T20:22:32.057Z,19.47
2018-08-16T20:25:01.905Z,16.97
2018-08-16T20:27:31.786Z,14.97
2018-08-16T20:30:01.605Z,16.67
2018-08-16T20:32:31.772Z,16.37
2018-08-16T20:35:01.580Z,18.33
2018-08-16T20:37:31.508Z,16.00
2018-08-16T20:40:01.583Z,19.13
2018-08-16T20:42:31.436Z,18.10
2018-08-16T20:45:01.451Z,21.43
2018-08-16T20:47:31.275Z,17.97
2018-08-16T20:50:01.185Z,18.40
2018-08-16T20:52:31.160Z,15.60
2018-08-16T20:55:01.189Z,20.07
2018-08-16T20:57:31.184Z,17.63
2018-08-16T21:00:00.932Z,16.93
2018-08-16T21:02:31.091Z,17.53
2018-08-16T21:05:00.983Z,18.00
2018-08-16T21:07:31.187Z,18.17
2018-08-16T21:10:01.023Z,18.80
2018-08-16T21:12:30.815Z,17.97
2018-08-16T21:15:00.808Z,17.00
2018-08-16T21:17:30.887Z,17.40
2018-08-16T21:20:00.705Z,17.50
2018-08-16T21:22:30.705Z,17.83
2018-08-16T21:25:00.592Z,17.53
2018-08-16T21:27:30.598Z,19.43
2018-08-16T21:30:00.754Z,19.47
2018-08-16T21:32:30.869Z,16.67
2018-08-16T21:35:01.054Z,18.30
2018-08-16T21:37:30.976Z,16.77
2018-08-16T21:40:00.968Z,18.00
2018-08-16T21:42:31.051Z,17.87
2018-08-16T21:45:00.842Z,17.40
2018-08-16T21:47:30.963Z,18.97
2018-08-16T21:50:01.192Z,17.20
2018-08-16T21:52:31.041Z,22.90
2018-08-16T21:55:00.999Z,20.20
2018-08-16T21:57:30.936Z,17.73
2018-08-16T22:00:00.894Z,17.60
2018-08-16T22:02:30.837Z,18.47
2018-08-16T22:05:00.803Z,18.93
2018-08-16T22:08:11.841Z,18.83
2018-08-16T22:10:43.053Z,18.30
2018-08-16T22:13:12.943Z,20.27
2018-08-16T22:15:43.091Z,21.53
2018-08-16T22:18:13.138Z,21.23
2018-08-16T22:20:43.100Z,16.57
2018-08-16T22:23:13.038Z,17.03
2018-08-16T22:25:42.916Z,19.37
2018-08-16T22:28:13.000Z,17.53
2018-08-16T22:30:43.108Z,17.97
2018-08-16T22:33:12.974Z,20.30
2018-08-16T22:35:42.921Z,15.90
2018-08-16T22:38:12.904Z,19.67
2018-08-16T22:40:43.106Z,17.60
2018-08-16T22:43:13.177Z,17.37
2018-08-16T22:45:43.074Z,21.23
2018-08-16T22:48:12.931Z,19.77
2018-08-16T22:50:43.159Z,17.60
2018-08-16T22:53:13.210Z,17.43
2018-08-16T22:55:43.241Z,16.87
2018-08-16T22:58:13.056Z,16.20
2018-08-16T23:00:43.009Z,16.37
2018-08-16T23:03:12.936Z,16.50
2018-08-16T23:05:42.877Z,16.90
2018-08-16T23:08:12.950Z,16.60
2018-08-16T23:10:42.854Z,18.00
2018-08-16T23:13:12.845Z,17.20
2018-08-16T23:15:42.809Z,15.00
2018-08-16T23:18:12.649Z,16.43
2018-08-16T23:20:42.644Z,15.73
2018-08-16T23:23:12.679Z,16.60
2018-08-16T23:25:42.552Z,15.67
2018-08-16T23:28:12.908Z,21.87
2018-08-16T23:30:42.872Z,17.17
2018-08-16T23:33:12.780Z,15.43
2018-08-16T23:35:42.807Z,15.37
2018-08-16T23:38:12.755Z,16.43
2018-08-16T23:40:42.566Z,16.37
2018-08-16T23:43:12.560Z,16.33
2018-08-16T23:45:42.348Z,16.20
2018-08-16T23:48:26.212Z,16.87
2018-08-16T23:50:56.097Z,17.63
2018-08-16T23:53:25.960Z,16.33
2018-08-16T23:55:56.429Z,17.93
2018-08-16T23:58:26.389Z,16.83
